createdAt,value
2022-10-11T00:00:14.125Z,22.22
2022-10-11T00:06:59.640Z,22.20
2022-10-11T00:13:47.645Z,22.16
2022-10-11T00:20:33.061Z,22.17
2022-10-11T00:27:18.529Z,22.17
2022-10-11T00:34:06.482Z,22.13
2022-10-11T00:40:51.812Z,22.10
2022-10-11T00:47:37.202Z,22.07
2022-10-11T00:54:29.910Z,21.98
2022-10-11T01:01:15.722Z,21.95
2022-10-11T01:08:03.604Z,21.88
2022-10-11T01:15:12.000Z,21.78
2022-10-11T01:22:11.967Z,21.72
2022-10-11T01:29:11.638Z,21.63
2022-10-11T01:36:09.843Z,21.52
2022-10-11T01:42:57.319Z,20.71
2022-10-11T01:49:42.824Z,21.36
2022-10-11T01:57:03.472Z,21.23
2022-10-11T02:03:57.409Z,21.08
2022-10-11T02:10:49.299Z,20.99
2022-10-11T02:17:42.244Z,20.25
2022-10-11T02:24:33.376Z,20.42
2022-10-11T02:31:21.440Z,19.97
2022-10-11T02:38:17.771Z,19.86
2022-10-11T03:05:51.789Z,19.24
2022-10-11T03:12:37.502Z,19.11
2022-10-11T03:19:22.983Z,19.00
2022-10-11T03:26:10.995Z,18.94
2022-10-11T03:32:56.427Z,18.93
2022-10-11T03:39:41.972Z,18.91
2022-10-11T03:46:29.909Z,18.91
2022-10-11T03:53:15.577Z,18.91
2022-10-11T04:00:00.913Z,18.82
2022-10-11T04:06:53.597Z,18.75
2022-10-11T04:13:39.684Z,18.63
2022-10-11T04:20:25.133Z,18.54
2022-10-11T04:27:13.115Z,18.46
2022-10-11T04:33:58.429Z,18.34
2022-10-11T04:40:43.761Z,18.25
2022-10-11T04:47:31.793Z,18.17
2022-10-11T04:54:17.781Z,18.17
2022-10-11T05:01:04.808Z,17.91
2022-10-11T05:07:52.764Z,18.07
2022-10-11T05:14:38.334Z,18.28
2022-10-11T05:21:26.595Z,18.33
2022-10-11T05:28:14.607Z,18.32
2022-10-11T05:35:00.431Z,18.28
2022-10-11T05:41:47.576Z,18.14
2022-10-11T05:48:36.106Z,17.78
2022-10-11T05:55:21.435Z,17.88
2022-10-11T06:02:06.917Z,17.83
2022-10-11T06:08:54.969Z,17.73
2022-10-11T06:15:42.823Z,17.59
2022-10-11T06:22:28.163Z,17.50
2022-10-11T06:29:16.074Z,17.43
2022-10-11T06:36:02.872Z,17.41
2022-10-11T06:42:51.745Z,17.31
2022-10-11T06:49:39.884Z,17.16
2022-10-11T06:56:25.627Z,16.87
2022-10-11T07:03:11.766Z,16.97
2022-10-11T07:09:59.843Z,16.93
2022-10-11T07:16:45.168Z,16.89
2022-10-11T07:23:30.476Z,16.82
2022-10-11T07:30:18.674Z,16.56
2022-10-11T07:37:06.867Z,16.79
2022-10-11T07:43:52.313Z,16.73
2022-10-11T07:50:40.669Z,16.70
2022-10-11T07:57:26.080Z,16.76
2022-10-11T08:04:12.525Z,16.73
2022-10-11T08:11:00.750Z,16.72
2022-10-11T08:17:46.356Z,16.76
2022-10-11T08:24:37.326Z,16.79
2022-10-11T08:31:26.530Z,16.76
2022-10-11T08:38:11.945Z,16.81
2022-10-11T08:45:10.979Z,16.80
2022-10-11T08:52:04.714Z,16.83
2022-10-11T08:58:57.651Z,16.83
2022-10-11T09:06:00.935Z,16.79
2022-10-11T09:12:59.988Z,16.80
2022-10-11T09:20:09.754Z,16.93
2022-10-11T09:27:00.943Z,17.07
2022-10-11T09:33:52.443Z,17.16
2022-10-11T09:40:52.934Z,17.23
2022-10-11T09:47:38.337Z,17.39
2022-10-11T09:54:42.044Z,17.08
2022-10-11T10:01:30.917Z,17.59
2022-10-11T10:08:27.646Z,17.79
2022-10-11T10:15:23.125Z,17.68
2022-10-11T10:22:08.821Z,17.74
2022-10-11T10:29:05.948Z,18.15
2022-10-11T10:35:58.256Z,18.22
2022-10-11T10:42:43.853Z,18.34
2022-10-11T10:49:54.749Z,18.33
2022-10-11T10:56:50.900Z,18.53
2022-10-11T11:03:44.685Z,18.65
2022-10-11T11:10:37.396Z,18.76
2022-10-11T11:17:39.107Z,18.91
2022-10-11T11:24:49.349Z,19.07
2022-10-11T11:32:11.600Z,19.23
2022-10-11T11:39:05.257Z,19.35
2022-10-11T11:45:58.173Z,19.50
2022-10-11T11:52:48.612Z,19.56
2022-10-11T11:59:43.507Z,19.59
2022-10-11T12:06:33.896Z,19.71
2022-10-11T12:13:29.720Z,19.24
2022-10-11T12:20:29.453Z,19.95
2022-10-11T12:27:40.034Z,20.14
2022-10-11T12:34:38.618Z,20.21
2022-10-11T12:41:53.802Z,20.22
2022-10-11T12:48:50.782Z,20.28
2022-10-11T12:55:52.012Z,20.34
2022-10-11T13:02:45.211Z,20.22
2022-10-11T13:09:34.428Z,20.51
2022-10-11T13:16:23.857Z,19.93
2022-10-11T13:23:27.124Z,20.62
2022-10-11T13:30:21.735Z,20.66
2022-10-11T13:37:07.868Z,20.75
2022-10-11T13:43:56.047Z,20.90
2022-10-11T13:50:46.171Z,20.76
2022-10-11T13:57:41.161Z,20.78
2022-10-11T14:04:30.228Z,20.80
2022-10-11T14:11:17.420Z,20.83
2022-10-11T14:18:05.485Z,20.91
2022-10-11T14:24:53.483Z,20.89
2022-10-11T14:31:41.676Z,20.60
2022-10-11T14:38:27.521Z,20.82
2022-10-11T14:45:15.750Z,20.80
2022-10-11T14:52:02.320Z,20.78
2022-10-11T14:58:48.053Z,20.92
2022-10-11T15:05:36.679Z,20.96
2022-10-11T15:12:22.294Z,19.96
2022-10-11T15:19:07.863Z,21.08
2022-10-11T15:25:55.821Z,21.08
2022-10-11T15:32:41.197Z,21.09
2022-10-11T15:39:31.889Z,20.70
2022-10-11T15:46:23.194Z,21.07
2022-10-11T15:53:11.738Z,21.16
2022-10-11T15:59:57.071Z,21.24
2022-10-11T16:06:45.188Z,20.81
2022-10-11T16:13:30.605Z,21.22
2022-10-11T16:20:18.699Z,21.37
2022-10-11T16:27:06.745Z,21.39
2022-10-11T16:33:53.656Z,21.44
2022-10-11T16:40:41.115Z,21.44
2022-10-11T16:47:29.185Z,21.47
2022-10-11T16:54:19.983Z,21.48
2022-10-11T17:01:06.570Z,21.44
2022-10-11T17:07:54.372Z,21.64
2022-10-11T17:14:40.797Z,21.38
2022-10-11T17:21:26.431Z,21.33
2022-10-11T17:28:15.108Z,21.21
2022-10-11T17:35:02.900Z,21.11
2022-10-11T17:41:49.324Z,20.96
2022-10-11T17:48:39.410Z,20.77
2022-10-11T17:55:24.845Z,20.62
2022-10-11T18:02:12.084Z,20.46
2022-10-11T18:09:03.453Z,20.31
2022-10-11T18:15:53.387Z,20.14
2022-10-11T18:22:39.112Z,19.67
2022-10-11T18:29:27.109Z,19.85
2022-10-11T18:36:13.797Z,19.77
2022-10-11T18:42:59.719Z,19.69
2022-10-11T18:49:47.948Z,19.62
2022-10-11T18:56:37.016Z,19.53
2022-10-11T19:03:22.556Z,19.46
2022-10-11T19:10:11.957Z,19.35
2022-10-11T19:16:59.016Z,19.26
2022-10-11T19:23:46.921Z,19.17
2022-10-11T19:30:35.440Z,19.09
2022-10-11T19:37:21.525Z,18.82
2022-10-11T19:44:07.654Z,19.03
2022-10-11T19:50:55.700Z,18.94
2022-10-11T19:57:41.064Z,18.82
2022-10-11T20:04:51.567Z,18.75
2022-10-11T20:11:34.476Z,18.63
2022-10-11T20:18:19.856Z,18.59
2022-10-11T20:25:05.328Z,18.45
2022-10-11T20:31:53.403Z,18.40
2022-10-11T20:38:41.816Z,18.30
2022-10-11T20:45:27.205Z,18.01
2022-10-11T20:52:15.172Z,18.07
2022-10-11T20:59:01.910Z,17.36
2022-10-11T21:05:47.329Z,18.03
2022-10-11T21:12:35.723Z,17.74
2022-10-11T21:19:21.299Z,17.46
2022-10-11T21:26:08.716Z,17.40
2022-10-11T21:32:57.652Z,17.51
2022-10-11T21:39:43.005Z,17.53
2022-10-11T21:53:39.135Z,17.49
2022-10-11T22:00:24.818Z,17.10
2022-10-11T22:07:10.177Z,17.44
2022-10-11T22:13:58.084Z,16.87
2022-10-11T22:20:43.478Z,17.38
2022-10-11T22:27:28.956Z,17.33
2022-10-11T22:34:16.977Z,17.24
2022-10-11T22:41:02.740Z,17.17
2022-10-11T22:47:48.109Z,17.11
2022-10-11T22:54:36.081Z,16.83
2022-10-11T23:01:21.384Z,16.74
2022-10-11T23:08:06.800Z,16.69
2022-10-11T23:14:54.874Z,16.56
2022-10-11T23:21:40.221Z,16.63
2022-10-11T23:28:25.570Z,16.63
2022-10-11T23:35:13.677Z,16.59
2022-10-11T23:41:59.468Z,16.52
2022-10-11T23:48:44.966Z,16.20
2022-10-11T23:55:32.911Z,16.22
